KRMN

Stafford Regional Airport

Stafford, Virginia, USA
METAR KRMN 162215Z AUTO 04003KT 10SM CLR 04/M01 A3023 RMK AO2 T00391009
Observed Flight Rules
Jan-16 @ 22:15 UTC (15 minutes ago) Visual Flight Rules
Wind Visibility Clouds
40° at 3 knots 10 miles
  • Clear skies
Temperatures Readings
Current 4°C / 39°F
Dewpoint -1°C / 30°F
Humidity 70%
Altimeter 30.23" Hg
Pressure 1023.72 hPa
Elevation 65
METAR KRMN 162215Z AUTO 04003KT 10SM CLR 04/M01 A3023 RMK AO2 T00391009
Observed Flight Rules
Jan-16 @ 22:15 UTC
(15 minutes ago)
VFR
Wind Visibility
40° at 3 knots 10 miles
Clouds
  • Clear skies
Temperature Dewpoint
4°C / 39°F -1°C / 30°F
Humidity Altimeter Pressure
70% 30.23" Hg 1023.72 hPa